createdAt,value
2017-09-04T00:00:17.085Z,0
2017-09-04T00:00:57.623Z,0
2017-09-04T00:01:38.151Z,0
2017-09-04T00:02:18.702Z,0
2017-09-04T00:02:59.217Z,0
2017-09-04T00:03:39.750Z,0
2017-09-04T00:04:20.293Z,0
2017-09-04T00:05:00.821Z,0
2017-09-04T00:05:41.357Z,0
2017-09-04T00:06:21.879Z,0
2017-09-04T00:07:02.411Z,0
2017-09-04T00:07:42.950Z,0
2017-09-04T00:08:23.504Z,0
2017-09-04T00:09:04.043Z,0
2017-09-04T00:09:44.574Z,0
2017-09-04T00:10:25.099Z,0
2017-09-04T00:11:05.617Z,0
2017-09-04T00:11:46.156Z,0
2017-09-04T00:12:26.694Z,0
2017-09-04T00:13:07.215Z,0
2017-09-04T00:13:47.736Z,0
2017-09-04T00:14:28.267Z,0
2017-09-04T00:15:08.804Z,0
2017-09-04T00:15:49.345Z,0
2017-09-04T00:16:29.873Z,0
2017-09-04T00:17:10.388Z,0
2017-09-04T00:17:50.929Z,0
2017-09-04T00:18:31.521Z,0
2017-09-04T00:19:12.129Z,0
2017-09-04T00:19:52.676Z,0
2017-09-04T00:20:33.341Z,0
2017-09-04T00:21:13.917Z,0
2017-09-04T00:21:55.093Z,0
2017-09-04T00:22:35.621Z,0
2017-09-04T00:23:16.137Z,0
2017-09-04T00:23:56.790Z,0
2017-09-04T00:24:37.354Z,0
2017-09-04T00:25:17.888Z,0
2017-09-04T00:25:58.436Z,0
2017-09-04T00:26:38.960Z,0
2017-09-04T00:27:19.497Z,0
2017-09-04T00:28:00.396Z,0
2017-09-04T00:28:41.135Z,0
2017-09-04T00:29:21.653Z,0
2017-09-04T00:30:02.180Z,0
2017-09-04T00:30:42.706Z,0
2017-09-04T00:31:23.249Z,0
2017-09-04T00:32:03.767Z,0
2017-09-04T00:32:44.312Z,0
2017-09-04T00:33:24.839Z,0
2017-09-04T00:34:05.369Z,0
2017-09-04T00:34:45.899Z,0
2017-09-04T00:35:26.425Z,0
2017-09-04T00:36:06.960Z,0
2017-09-04T00:36:47.480Z,0
2017-09-04T00:37:28.026Z,0
2017-09-04T00:38:08.559Z,0
2017-09-04T00:38:49.099Z,0
2017-09-04T00:39:29.626Z,0
2017-09-04T00:40:10.167Z,0
2017-09-04T00:40:50.730Z,0
2017-09-04T00:41:31.278Z,0
2017-09-04T00:42:11.820Z,0
2017-09-04T00:42:52.369Z,0
2017-09-04T00:43:32.878Z,0
2017-09-04T00:44:13.412Z,0
2017-09-04T00:44:53.957Z,0
2017-09-04T00:45:34.529Z,0
2017-09-04T00:46:14.999Z,0
2017-09-04T00:46:55.530Z,0
2017-09-04T00:47:36.067Z,0
2017-09-04T00:48:16.610Z,0
2017-09-04T00:48:57.152Z,0
2017-09-04T00:49:37.691Z,0
2017-09-04T00:50:18.210Z,0
2017-09-04T00:50:58.779Z,0
2017-09-04T00:51:39.306Z,0
2017-09-04T00:52:19.827Z,0
2017-09-04T00:53:00.332Z,0
2017-09-04T00:53:40.885Z,0
2017-09-04T00:54:21.409Z,0
2017-09-04T00:55:01.938Z,0
2017-09-04T00:55:42.468Z,0
2017-09-04T00:56:22.980Z,0
2017-09-04T00:57:03.510Z,0
2017-09-04T00:57:44.035Z,0
2017-09-04T00:58:24.579Z,0
2017-09-04T00:59:05.107Z,0
2017-09-04T00:59:45.684Z,0
2017-09-04T01:00:26.189Z,0
2017-09-04T01:01:06.737Z,0
2017-09-04T01:01:47.263Z,0
2017-09-04T01:02:27.790Z,0
2017-09-04T01:03:08.327Z,0
2017-09-04T01:03:48.869Z,0
2017-09-04T01:04:29.389Z,0
2017-09-04T01:05:09.926Z,0
2017-09-04T01:05:50.452Z,0
2017-09-04T01:06:30.981Z,0
2017-09-04T01:07:11.521Z,0
2017-09-04T01:07:52.063Z,0
2017-09-04T01:08:32.633Z,0
2017-09-04T01:09:13.164Z,0
2017-09-04T01:09:53.692Z,0
2017-09-04T01:10:34.256Z,0
2017-09-04T01:11:14.795Z,0
2017-09-04T01:11:55.364Z,0
2017-09-04T01:12:35.898Z,0
2017-09-04T01:13:16.426Z,0
2017-09-04T01:13:56.964Z,0
2017-09-04T01:14:37.559Z,0
2017-09-04T01:15:18.109Z,0
2017-09-04T01:15:58.628Z,0
2017-09-04T01:16:39.166Z,0
2017-09-04T01:17:19.706Z,0
2017-09-04T01:18:00.242Z,0
2017-09-04T01:18:40.790Z,0
2017-09-04T01:19:21.322Z,0
2017-09-04T01:20:01.871Z,0
2017-09-04T01:20:42.388Z,0
2017-09-04T01:21:22.909Z,0
2017-09-04T01:22:03.438Z,0
2017-09-04T01:22:43.964Z,0
2017-09-04T01:23:24.504Z,0
2017-09-04T01:24:04.998Z,0
2017-09-04T01:24:45.538Z,0
2017-09-04T01:25:26.056Z,0
2017-09-04T01:26:06.554Z,0
2017-09-04T01:26:47.097Z,0
2017-09-04T01:27:27.651Z,0
2017-09-04T01:28:08.181Z,0
2017-09-04T01:28:48.692Z,0
2017-09-04T01:29:29.270Z,0
2017-09-04T01:30:09.803Z,0
2017-09-04T01:30:50.325Z,0
2017-09-04T01:31:30.859Z,0
2017-09-04T01:32:11.385Z,0
2017-09-04T01:32:51.913Z,0
2017-09-04T01:33:32.423Z,0
2017-09-04T01:34:12.979Z,0
2017-09-04T01:34:53.517Z,0
2017-09-04T01:35:34.047Z,0
2017-09-04T01:36:14.572Z,0
2017-09-04T01:36:55.110Z,0
2017-09-04T01:37:35.623Z,0
2017-09-04T01:38:16.160Z,0
2017-09-04T01:38:56.698Z,0
2017-09-04T01:39:37.226Z,0
2017-09-04T01:40:17.771Z,0
2017-09-04T01:40:58.314Z,0
2017-09-04T01:41:38.847Z,0
2017-09-04T01:42:19.376Z,0
2017-09-04T01:42:59.910Z,0
2017-09-04T01:43:40.467Z,0
2017-09-04T01:44:21.011Z,0
2017-09-04T01:45:01.553Z,0
2017-09-04T01:45:42.093Z,0
2017-09-04T01:46:22.652Z,0
2017-09-04T01:47:03.208Z,0
2017-09-04T01:47:43.727Z,0
2017-09-04T01:48:24.273Z,0
2017-09-04T01:49:04.824Z,0
2017-09-04T01:49:45.353Z,0
2017-09-04T01:50:25.886Z,0
2017-09-04T01:51:06.422Z,0
2017-09-04T01:51:46.944Z,0
2017-09-04T01:52:27.523Z,0
2017-09-04T01:53:08.063Z,0
2017-09-04T01:53:48.626Z,0
2017-09-04T01:54:29.191Z,0
2017-09-04T01:55:09.726Z,0
2017-09-04T01:55:50.266Z,0
2017-09-04T01:56:30.783Z,0
2017-09-04T01:57:11.942Z,0
2017-09-04T01:57:52.461Z,0
2017-09-04T01:58:33.004Z,0
2017-09-04T01:59:13.542Z,0
2017-09-04T01:59:54.094Z,0
2017-09-04T02:00:34.633Z,0
2017-09-04T02:01:15.154Z,0
2017-09-04T02:01:55.683Z,0
2017-09-04T02:02:36.210Z,0
2017-09-04T02:03:16.777Z,0
2017-09-04T02:03:57.265Z,0
2017-09-04T02:04:37.811Z,0
2017-09-04T02:05:18.342Z,0
2017-09-04T02:05:58.880Z,0
2017-09-04T02:06:39.411Z,0
2017-09-04T02:07:19.943Z,0
2017-09-04T02:08:00.458Z,0
2017-09-04T02:08:40.981Z,0
2017-09-04T02:09:21.517Z,0
2017-09-04T02:10:02.092Z,0
2017-09-04T02:10:42.566Z,0
2017-09-04T02:11:23.123Z,0
2017-09-04T02:12:03.672Z,0
2017-09-04T02:12:44.207Z,0
2017-09-04T02:13:24.782Z,0
2017-09-04T02:14:05.312Z,0
2017-09-04T02:14:45.849Z,0
2017-09-04T02:15:26.360Z,0
2017-09-04T02:16:06.891Z,0
2017-09-04T02:16:47.428Z,0
2017-09-04T02:17:27.966Z,0
2017-09-04T02:18:08.492Z,0
2017-09-04T02:18:49.031Z,0
2017-09-04T02:19:29.561Z,0
2017-09-04T02:20:10.106Z,0
2017-09-04T02:20:50.620Z,0
2017-09-04T02:21:31.164Z,0
2017-09-04T02:22:11.675Z,0
2017-09-04T02:22:52.210Z,0
2017-09-04T02:23:32.772Z,0
2017-09-04T02:24:13.307Z,0
2017-09-04T02:24:53.823Z,0
2017-09-04T02:25:34.347Z,0
2017-09-04T02:26:14.878Z,0
2017-09-04T02:26:55.415Z,0
2017-09-04T02:27:35.962Z,0
2017-09-04T02:28:16.548Z,0
2017-09-04T02:29:03.664Z,0
2017-09-04T02:29:44.217Z,0
2017-09-04T02:30:24.733Z,0
2017-09-04T02:31:05.265Z,0
2017-09-04T02:31:45.801Z,0
2017-09-04T02:32:26.338Z,0
2017-09-04T02:33:06.860Z,0
2017-09-04T02:33:47.416Z,0
2017-09-04T02:34:27.948Z,0
2017-09-04T02:35:08.481Z,0
2017-09-04T02:35:49.016Z,0
2017-09-04T02:36:29.538Z,0
2017-09-04T02:37:10.126Z,0
2017-09-04T02:37:50.674Z,0
2017-09-04T02:38:31.208Z,0
2017-09-04T02:39:11.744Z,0
2017-09-04T02:39:52.280Z,0
2017-09-04T02:40:32.820Z,0
2017-09-04T02:41:13.358Z,0
2017-09-04T02:41:53.893Z,0
2017-09-04T02:42:34.423Z,0
2017-09-04T02:43:14.959Z,0
2017-09-04T02:43:55.500Z,0
2017-09-04T02:44:36.025Z,0
2017-09-04T02:45:16.557Z,0
2017-09-04T02:45:57.094Z,0
2017-09-04T02:46:37.627Z,0
2017-09-04T02:47:18.159Z,0
2017-09-04T02:47:58.695Z,0
2017-09-04T02:48:39.219Z,0
2017-09-04T02:49:19.747Z,0
2017-09-04T02:50:00.284Z,0
2017-09-04T02:50:40.795Z,0
2017-09-04T02:51:21.328Z,0
2017-09-04T02:52:01.860Z,0
2017-09-04T02:52:42.394Z,0
2017-09-04T02:53:22.940Z,0
2017-09-04T02:54:03.477Z,0
2017-09-04T02:54:43.998Z,0
2017-09-04T02:55:24.535Z,0
2017-09-04T02:56:05.051Z,0
2017-09-04T02:56:45.580Z,0
2017-09-04T02:57:26.121Z,0
2017-09-04T02:58:06.658Z,0
2017-09-04T02:58:47.179Z,0
2017-09-04T02:59:27.704Z,0
2017-09-04T03:00:08.237Z,0
2017-09-04T03:00:48.775Z,0
2017-09-04T03:01:29.308Z,0
2017-09-04T03:02:09.847Z,0
2017-09-04T03:02:50.404Z,0
2017-09-04T03:03:30.919Z,0
2017-09-04T03:04:11.450Z,0
2017-09-04T03:04:52.008Z,0
2017-09-04T03:05:32.541Z,0
2017-09-04T03:06:13.084Z,0
2017-09-04T03:06:53.610Z,0
2017-09-04T03:07:34.153Z,0
2017-09-04T03:08:14.672Z,0
2017-09-04T03:08:55.212Z,0
2017-09-04T03:09:35.745Z,0
2017-09-04T03:10:16.274Z,0
2017-09-04T03:10:56.818Z,0
2017-09-04T03:11:37.383Z,0
2017-09-04T03:12:17.882Z,0
2017-09-04T03:12:58.407Z,0
2017-09-04T03:13:38.952Z,0
2017-09-04T03:14:19.466Z,0
2017-09-04T03:14:59.989Z,0
2017-09-04T03:15:40.517Z,0
2017-09-04T03:16:21.050Z,0
2017-09-04T03:17:01.573Z,0
2017-09-04T03:17:42.111Z,0
2017-09-04T03:18:22.636Z,0
2017-09-04T03:19:03.162Z,0
2017-09-04T03:19:43.697Z,0
2017-09-04T03:20:24.217Z,0
2017-09-04T03:21:04.749Z,0
2017-09-04T03:21:45.281Z,0
2017-09-04T03:22:25.812Z,0
2017-09-04T03:23:06.367Z,0
2017-09-04T03:23:46.905Z,0
2017-09-04T03:24:27.434Z,0
2017-09-04T03:25:08.026Z,0
2017-09-04T03:25:48.556Z,0
2017-09-04T03:26:29.089Z,0
2017-09-04T03:27:09.633Z,0
2017-09-04T03:27:50.162Z,0
2017-09-04T03:28:30.701Z,0
2017-09-04T03:29:11.221Z,0
2017-09-04T03:29:51.746Z,0
2017-09-04T03:30:32.276Z,0
2017-09-04T03:31:12.805Z,0
2017-09-04T03:31:53.321Z,0
2017-09-04T03:32:33.853Z,0
2017-09-04T03:33:14.446Z,0
2017-09-04T03:33:54.974Z,0
2017-09-04T03:34:35.511Z,0
2017-09-04T03:35:16.042Z,0
2017-09-04T03:35:56.591Z,0
2017-09-04T03:36:37.101Z,0
2017-09-04T03:37:17.629Z,0
2017-09-04T03:37:58.162Z,0
2017-09-04T03:38:38.702Z,0
2017-09-04T03:39:19.234Z,0
2017-09-04T03:39:59.810Z,0
2017-09-04T03:40:40.342Z,0
2017-09-04T03:41:20.886Z,0
2017-09-04T03:42:01.412Z,0
2017-09-04T03:42:41.941Z,0
2017-09-04T03:43:22.479Z,0
2017-09-04T03:44:02.986Z,0
2017-09-04T03:44:43.505Z,0
2017-09-04T03:45:24.073Z,0
2017-09-04T03:46:04.611Z,0
2017-09-04T03:46:45.142Z,0
2017-09-04T03:47:25.677Z,0
2017-09-04T03:48:06.202Z,0
2017-09-04T03:48:46.726Z,0
2017-09-04T03:49:27.268Z,0
2017-09-04T03:50:07.786Z,0
2017-09-04T03:50:48.321Z,0
2017-09-04T03:51:28.856Z,0
2017-09-04T03:52:09.386Z,0
2017-09-04T03:52:49.919Z,0
2017-09-04T03:53:30.478Z,0
2017-09-04T03:54:11.028Z,0
2017-09-04T03:54:51.549Z,0
2017-09-04T03:55:32.093Z,0
2017-09-04T03:56:12.629Z,0
2017-09-04T03:56:53.168Z,0
2017-09-04T03:57:33.703Z,0
2017-09-04T03:58:14.238Z,0
2017-09-04T03:58:54.772Z,0
2017-09-04T03:59:35.294Z,0
2017-09-04T04:00:15.828Z,0
2017-09-04T04:00:56.367Z,0
2017-09-04T04:01:36.897Z,0
2017-09-04T04:02:17.415Z,0
2017-09-04T04:02:57.957Z,0
2017-09-04T04:03:38.490Z,0
2017-09-04T04:04:19.025Z,0
2017-09-04T04:04:59.568Z,0
2017-09-04T04:05:40.098Z,0
2017-09-04T04:06:20.631Z,0
2017-09-04T04:07:01.201Z,0
2017-09-04T04:07:41.730Z,0
2017-09-04T04:08:22.267Z,0
2017-09-04T04:09:02.815Z,0
2017-09-04T04:09:43.341Z,0
2017-09-04T04:10:23.871Z,0
2017-09-04T04:11:04.405Z,0
2017-09-04T04:11:44.951Z,0
2017-09-04T04:12:25.460Z,0
2017-09-04T04:13:05.992Z,0
2017-09-04T04:13:46.528Z,0
2017-09-04T04:14:27.070Z,0
2017-09-04T04:15:07.605Z,0
2017-09-04T04:15:48.135Z,0
2017-09-04T04:16:28.666Z,0
2017-09-04T04:17:09.194Z,0
2017-09-04T04:17:49.731Z,0
2017-09-04T04:18:30.268Z,0
2017-09-04T04:19:10.809Z,0
2017-09-04T04:19:51.341Z,0
2017-09-04T04:20:31.875Z,0
2017-09-04T04:21:12.408Z,0
2017-09-04T04:21:52.963Z,0
2017-09-04T04:22:33.498Z,0
2017-09-04T04:23:14.032Z,0
2017-09-04T04:23:54.564Z,0
2017-09-04T04:24:35.093Z,4
2017-09-04T04:25:15.630Z,4
2017-09-04T04:25:56.162Z,4
2017-09-04T04:26:36.701Z,0
2017-09-04T04:27:17.227Z,0
2017-09-04T04:27:57.766Z,4
2017-09-04T04:28:38.296Z,4
2017-09-04T04:29:19.132Z,4
2017-09-04T04:29:59.663Z,4
2017-09-04T04:30:40.233Z,4
2017-09-04T04:31:20.768Z,4
2017-09-04T04:32:01.308Z,4
2017-09-04T04:32:41.834Z,8
2017-09-04T04:33:22.395Z,8
2017-09-04T04:34:02.920Z,8
2017-09-04T04:34:43.439Z,12
2017-09-04T04:35:23.974Z,12
2017-09-04T04:36:04.520Z,12
2017-09-04T04:36:45.032Z,12
2017-09-04T04:37:25.534Z,16
2017-09-04T04:38:06.083Z,16
2017-09-04T04:38:48.184Z,20
2017-09-04T04:39:28.756Z,20
2017-09-04T04:40:09.240Z,24
2017-09-04T04:40:49.754Z,28
2017-09-04T04:41:30.300Z,28
2017-09-04T04:42:10.820Z,28
2017-09-04T04:42:51.356Z,32
2017-09-04T04:43:31.869Z,36
2017-09-04T04:44:12.396Z,40
2017-09-04T04:44:52.932Z,44
2017-09-04T04:45:33.467Z,48
2017-09-04T04:46:14.024Z,52
2017-09-04T04:46:54.553Z,56
2017-09-04T04:47:35.085Z,64
2017-09-04T04:48:15.625Z,64
2017-09-04T04:48:56.136Z,72
2017-09-04T04:49:36.660Z,76
2017-09-04T04:50:17.177Z,84
2017-09-04T04:50:57.706Z,88
2017-09-04T04:51:38.239Z,96
2017-09-04T04:52:18.769Z,100
2017-09-04T04:52:59.417Z,112
2017-09-04T04:53:39.842Z,120
2017-09-04T04:54:20.341Z,128
2017-09-04T04:55:00.876Z,136
2017-09-04T04:55:41.426Z,144
2017-09-04T04:56:21.924Z,148
2017-09-04T04:57:02.404Z,156
2017-09-04T04:57:42.981Z,160
2017-09-04T04:58:23.549Z,168
2017-09-04T04:59:04.085Z,176
2017-09-04T04:59:44.621Z,184
2017-09-04T05:00:25.142Z,196
2017-09-04T05:01:05.688Z,204
2017-09-04T05:01:46.230Z,212
2017-09-04T05:02:26.690Z,224
2017-09-04T05:03:07.193Z,232
2017-09-04T05:03:47.711Z,240
2017-09-04T05:04:28.189Z,252
2017-09-04T05:05:08.732Z,264
2017-09-04T05:05:49.237Z,280
2017-09-04T05:06:29.753Z,292
2017-09-04T05:07:10.283Z,304
2017-09-04T05:07:50.832Z,316
2017-09-04T05:08:31.369Z,328
2017-09-04T05:09:11.891Z,344
2017-09-04T05:09:52.413Z,352
2017-09-04T05:10:32.944Z,368
2017-09-04T05:11:13.477Z,388
2017-09-04T05:11:54.014Z,404
2017-09-04T05:12:34.555Z,424
2017-09-04T05:13:15.065Z,444
2017-09-04T05:13:55.598Z,460
2017-09-04T05:14:36.136Z,480
2017-09-04T05:15:16.675Z,496
2017-09-04T05:15:57.195Z,504
2017-09-04T05:16:37.730Z,508
2017-09-04T05:17:18.252Z,512
2017-09-04T05:17:58.781Z,520
2017-09-04T05:18:39.421Z,528
2017-09-04T05:19:19.960Z,536
2017-09-04T05:20:00.486Z,544
2017-09-04T05:20:41.127Z,560
2017-09-04T05:21:21.556Z,568
2017-09-04T05:22:02.083Z,588
2017-09-04T05:22:42.613Z,608
2017-09-04T05:23:23.105Z,628
2017-09-04T05:24:03.573Z,640
2017-09-04T05:24:44.112Z,648
2017-09-04T05:25:24.645Z,664
2017-09-04T05:26:05.182Z,676
2017-09-04T05:26:45.700Z,688
2017-09-04T05:27:26.264Z,700
2017-09-04T05:28:06.760Z,720
2017-09-04T05:28:47.288Z,728
2017-09-04T05:29:27.804Z,740
2017-09-04T05:30:08.301Z,760
2017-09-04T05:30:48.802Z,772
2017-09-04T05:31:29.303Z,792
2017-09-04T05:32:09.805Z,800
2017-09-04T05:32:50.349Z,804
2017-09-04T05:33:30.871Z,792
2017-09-04T05:34:11.407Z,788
2017-09-04T05:34:51.941Z,804
2017-09-04T05:35:32.483Z,824
2017-09-04T05:36:13.019Z,824
2017-09-04T05:36:53.555Z,820
2017-09-04T05:37:34.106Z,820
2017-09-04T05:38:14.653Z,824
2017-09-04T05:38:55.148Z,844
2017-09-04T05:39:35.687Z,868
2017-09-04T05:40:16.206Z,896
2017-09-04T05:40:56.750Z,924
2017-09-04T05:41:37.258Z,964
2017-09-04T05:42:17.768Z,1000
2017-09-04T05:42:58.307Z,1048
2017-09-04T05:43:38.799Z,1092
2017-09-04T05:44:19.349Z,1148
2017-09-04T05:44:59.897Z,1192
2017-09-04T05:45:40.410Z,1220
2017-09-04T05:46:20.900Z,1244
2017-09-04T05:47:01.452Z,1264
2017-09-04T05:47:41.996Z,1284
2017-09-04T05:48:22.535Z,1316
2017-09-04T05:49:03.062Z,1332
2017-09-04T05:49:43.621Z,1348
2017-09-04T05:50:24.163Z,1364
2017-09-04T05:51:04.674Z,1384
2017-09-04T05:51:45.207Z,1396
2017-09-04T05:52:25.745Z,1400
2017-09-04T05:53:06.282Z,1416
2017-09-04T05:53:46.817Z,1424
2017-09-04T05:54:27.364Z,1448
2017-09-04T05:55:07.895Z,1472
2017-09-04T05:55:48.423Z,1496
2017-09-04T05:56:28.957Z,1504
2017-09-04T05:57:09.503Z,1500
2017-09-04T05:57:50.020Z,1500
2017-09-04T05:58:30.577Z,1496
2017-09-04T05:59:11.100Z,1508
2017-09-04T05:59:51.609Z,1524
2017-09-04T06:00:32.151Z,1552
2017-09-04T06:01:12.684Z,1592
2017-09-04T06:01:53.198Z,1612
2017-09-04T06:02:33.725Z,1640
2017-09-04T06:03:14.261Z,1668
2017-09-04T06:03:54.817Z,1692
2017-09-04T06:04:35.330Z,1708
2017-09-04T06:05:15.868Z,1736
2017-09-04T06:05:56.387Z,1760
2017-09-04T06:06:36.915Z,1780
2017-09-04T06:07:17.468Z,1804
2017-09-04T06:07:58.006Z,1824
2017-09-04T06:08:38.529Z,1876
2017-09-04T06:09:19.092Z,1936
2017-09-04T06:09:59.623Z,1992
2017-09-04T06:10:40.179Z,2052
2017-09-04T06:11:20.722Z,2096
2017-09-04T06:12:01.231Z,2116
2017-09-04T06:12:41.743Z,2124
2017-09-04T06:13:22.312Z,2124
2017-09-04T06:14:02.830Z,2120
2017-09-04T06:14:43.357Z,2084
2017-09-04T06:15:23.907Z,2036
2017-09-04T06:16:04.424Z,2032
2017-09-04T06:16:44.962Z,2040
2017-09-04T06:17:25.484Z,2052
2017-09-04T06:18:06.055Z,2052
2017-09-04T06:18:46.573Z,2044
2017-09-04T06:19:27.087Z,2032
2017-09-04T06:20:07.613Z,2044
2017-09-04T06:20:48.133Z,2056
2017-09-04T06:21:28.680Z,2052
2017-09-04T06:22:09.211Z,2024
2017-09-04T06:22:49.740Z,1976
2017-09-04T06:23:30.267Z,1944
2017-09-04T06:24:10.804Z,1924
2017-09-04T06:24:51.335Z,1904
2017-09-04T06:25:31.868Z,1872
2017-09-04T06:26:12.394Z,1840
2017-09-04T06:26:52.926Z,1804
2017-09-04T06:27:33.463Z,1780
2017-09-04T06:28:13.990Z,1776
2017-09-04T06:28:54.540Z,1776
2017-09-04T06:29:35.087Z,1800
2017-09-04T06:30:15.588Z,1824
2017-09-04T06:30:56.122Z,1872
2017-09-04T06:31:36.642Z,1936
2017-09-04T06:32:17.171Z,2000
2017-09-04T06:32:57.695Z,2056
2017-09-04T06:33:38.230Z,2128
2017-09-04T06:34:18.746Z,2212
2017-09-04T06:34:59.285Z,2292
2017-09-04T06:35:39.807Z,2332
2017-09-04T06:36:20.373Z,2360
2017-09-04T06:37:00.877Z,2380
2017-09-04T06:37:41.396Z,2428
2017-09-04T06:38:21.923Z,2468
2017-09-04T06:39:02.455Z,2492
2017-09-04T06:39:42.995Z,2548
2017-09-04T06:40:23.528Z,2548
2017-09-04T06:41:04.079Z,2648
2017-09-04T06:41:44.618Z,2700
2017-09-04T06:42:25.151Z,2760
2017-09-04T06:43:05.685Z,2816
2017-09-04T06:43:46.226Z,2868
2017-09-04T06:44:26.754Z,2916
2017-09-04T06:45:07.292Z,2932
2017-09-04T06:45:47.833Z,2892
2017-09-04T06:46:28.375Z,2916
2017-09-04T06:47:08.911Z,2940
2017-09-04T06:47:49.450Z,2964
2017-09-04T06:48:29.988Z,2964
2017-09-04T06:49:10.514Z,2960
2017-09-04T06:49:51.046Z,3000
2017-09-04T06:50:31.587Z,3080
2017-09-04T06:51:12.122Z,3096
2017-09-04T06:51:52.661Z,3060
2017-09-04T06:52:33.202Z,3064
2017-09-04T06:53:13.735Z,3068
2017-09-04T06:53:54.292Z,3148
2017-09-04T06:54:34.846Z,3136
2017-09-04T06:55:15.386Z,3152
2017-09-04T06:55:55.929Z,3164
2017-09-04T06:56:36.465Z,3196
2017-09-04T06:57:17.003Z,3216
2017-09-04T06:57:57.528Z,3208
2017-09-04T06:58:38.062Z,3168
2017-09-04T06:59:18.652Z,3144
2017-09-04T06:59:59.189Z,3096
2017-09-04T07:00:39.723Z,3072
2017-09-04T07:01:20.282Z,3080
2017-09-04T07:02:00.803Z,3080
2017-09-04T07:02:41.336Z,3076
2017-09-04T07:03:21.881Z,3088
2017-09-04T07:04:02.408Z,3184
2017-09-04T07:04:42.944Z,3260
2017-09-04T07:05:23.470Z,3308
2017-09-04T07:06:04.014Z,3432
2017-09-04T07:06:44.545Z,3296
2017-09-04T07:07:25.119Z,3436
2017-09-04T07:08:05.652Z,3512
2017-09-04T07:08:46.199Z,3524
2017-09-04T07:09:26.729Z,3568
2017-09-04T07:10:07.266Z,3784
2017-09-04T07:10:47.806Z,3892
2017-09-04T07:11:28.344Z,3816
2017-09-04T07:12:08.907Z,3784
2017-09-04T07:12:49.402Z,3796
2017-09-04T07:13:29.943Z,3748
2017-09-04T07:14:10.475Z,3636
2017-09-04T07:14:51.008Z,3544
2017-09-04T07:15:31.533Z,3512
2017-09-04T07:16:12.077Z,3496
2017-09-04T07:16:52.605Z,3520
2017-09-04T07:17:33.146Z,3368
2017-09-04T07:18:13.676Z,3436
2017-09-04T07:18:54.220Z,3556
2017-09-04T07:19:34.779Z,3748
2017-09-04T07:20:15.314Z,3980
2017-09-04T07:20:55.854Z,4084
2017-09-04T07:21:36.402Z,4096
2017-09-04T07:22:16.933Z,4180
2017-09-04T07:22:57.471Z,4348
2017-09-04T07:23:38.005Z,4628
2017-09-04T07:24:18.539Z,4856
2017-09-04T07:24:59.079Z,4928
2017-09-04T07:25:39.619Z,5008
2017-09-04T07:26:20.140Z,5216
2017-09-04T07:27:00.677Z,5424
2017-09-04T07:27:41.199Z,5716
2017-09-04T07:28:21.738Z,5904
2017-09-04T07:29:02.278Z,5988
2017-09-04T07:29:42.805Z,6096
2017-09-04T07:30:23.339Z,6172
2017-09-04T07:31:03.867Z,6280
2017-09-04T07:31:44.388Z,6368
2017-09-04T07:32:24.923Z,6352
2017-09-04T07:33:05.462Z,6312
2017-09-04T07:33:45.993Z,6324
2017-09-04T07:34:26.535Z,6616
2017-09-04T07:35:07.079Z,6712
2017-09-04T07:35:47.627Z,6684
2017-09-04T07:36:28.158Z,6696
2017-09-04T07:37:08.686Z,6732
2017-09-04T07:37:49.241Z,6764
2017-09-04T07:38:29.779Z,6652
2017-09-04T07:39:10.316Z,6596
2017-09-04T07:39:50.849Z,6548
2017-09-04T07:40:31.403Z,6528
2017-09-04T07:41:11.945Z,6516
2017-09-04T07:41:52.476Z,6508
2017-09-04T07:42:33.004Z,6560
2017-09-04T07:43:13.538Z,6632
2017-09-04T07:43:54.076Z,6688
2017-09-04T07:44:34.615Z,6832
2017-09-04T07:45:15.140Z,6900
2017-09-04T07:45:55.686Z,6844
2017-09-04T07:46:36.240Z,6836
2017-09-04T07:47:16.757Z,6856
2017-09-04T07:47:57.317Z,6736
2017-09-04T07:48:37.854Z,6508
2017-09-04T07:49:18.396Z,6144
2017-09-04T07:49:58.948Z,5756
2017-09-04T07:50:39.520Z,5628
2017-09-04T07:51:20.055Z,5464
2017-09-04T07:52:00.610Z,5300
2017-09-04T07:52:41.148Z,5168
2017-09-04T07:53:21.661Z,4876
2017-09-04T07:54:02.187Z,5060
2017-09-04T07:54:42.726Z,6580
2017-09-04T07:55:23.259Z,7116
2017-09-04T07:56:03.801Z,5976
2017-09-04T07:56:44.310Z,4756
2017-09-04T07:57:24.872Z,5020
2017-09-04T07:58:05.391Z,5212
2017-09-04T07:58:45.919Z,4972
2017-09-04T07:59:26.461Z,4848
2017-09-04T08:00:06.988Z,5032
2017-09-04T08:00:47.518Z,5588
2017-09-04T08:01:28.076Z,5928
2017-09-04T08:02:08.598Z,5540
2017-09-04T08:02:49.143Z,5560
2017-09-04T08:03:29.700Z,5568
2017-09-04T08:04:10.215Z,6252
2017-09-04T08:04:50.756Z,6556
2017-09-04T08:05:31.284Z,5836
2017-09-04T08:06:11.819Z,5564
2017-09-04T08:06:52.347Z,14256
2017-09-04T08:07:32.877Z,19488
2017-09-04T08:08:13.413Z,16320
2017-09-04T08:08:53.928Z,8712
2017-09-04T08:09:34.472Z,7500
2017-09-04T08:10:15.020Z,7012
2017-09-04T08:10:55.550Z,5444
2017-09-04T08:11:36.078Z,5568
2017-09-04T08:12:16.616Z,6004
2017-09-04T08:12:57.153Z,6036
2017-09-04T08:13:37.683Z,6372
2017-09-04T08:14:18.233Z,6296
2017-09-04T08:14:58.772Z,8424
2017-09-04T08:15:39.292Z,12540
2017-09-04T08:16:19.832Z,14988
2017-09-04T08:17:00.369Z,22752
2017-09-04T08:17:40.882Z,27840
2017-09-04T08:18:21.427Z,15536
2017-09-04T08:19:01.956Z,8996
2017-09-04T08:19:42.491Z,8188
2017-09-04T08:20:23.025Z,8504
2017-09-04T08:21:03.602Z,8920
2017-09-04T08:21:44.124Z,9992
2017-09-04T08:22:24.666Z,9928
2017-09-04T08:23:05.205Z,9528
2017-09-04T08:23:45.743Z,9508
2017-09-04T08:24:26.274Z,9284
2017-09-04T08:25:06.796Z,9580
2017-09-04T08:25:47.335Z,10416
2017-09-04T08:26:27.879Z,9648
2017-09-04T08:27:08.418Z,10840
2017-09-04T08:27:48.954Z,12504
2017-09-04T08:28:29.468Z,17568
2017-09-04T08:29:09.992Z,15820
2017-09-04T08:29:50.538Z,13140
2017-09-04T08:30:31.072Z,12104
2017-09-04T08:31:11.616Z,12184
2017-09-04T08:31:52.148Z,12372
2017-09-04T08:32:32.693Z,12456
2017-09-04T08:33:13.231Z,14552
2017-09-04T08:33:53.769Z,21472
2017-09-04T08:34:34.289Z,22272
2017-09-04T08:35:14.827Z,33856
2017-09-04T08:35:55.367Z,36896
2017-09-04T08:36:35.956Z,39488
2017-09-04T08:37:16.493Z,30816
2017-09-04T08:37:56.960Z,23744
2017-09-04T08:38:37.495Z,25344
2017-09-04T08:39:18.135Z,17216
2017-09-04T08:39:58.663Z,19200
2017-09-04T08:40:39.195Z,26656
2017-09-04T08:41:19.746Z,14620
2017-09-04T08:42:00.266Z,14000
2017-09-04T08:42:40.816Z,17984
2017-09-04T08:43:21.351Z,13752
2017-09-04T08:44:01.899Z,12228
2017-09-04T08:44:42.441Z,11912
2017-09-04T08:45:22.969Z,13128
2017-09-04T08:46:03.514Z,11456
2017-09-04T08:46:44.069Z,11108
2017-09-04T08:47:24.582Z,11308
2017-09-04T08:48:05.134Z,11452
2017-09-04T08:48:45.687Z,11476
2017-09-04T08:49:26.219Z,12428
2017-09-04T08:50:06.766Z,11600
2017-09-04T08:50:47.305Z,11536
2017-09-04T08:51:27.866Z,10812
2017-09-04T08:52:08.388Z,11772
2017-09-04T08:52:48.918Z,14620
2017-09-04T08:53:29.446Z,14912
2017-09-04T08:54:09.991Z,23264
2017-09-04T08:54:50.525Z,25152
2017-09-04T08:55:31.063Z,24928
2017-09-04T08:56:11.611Z,40928
2017-09-04T08:56:52.161Z,34368
2017-09-04T08:57:32.733Z,16640
2017-09-04T08:58:13.281Z,12684
2017-09-04T08:58:53.831Z,11792
2017-09-04T08:59:34.361Z,11972
2017-09-04T09:00:14.902Z,11396
2017-09-04T09:00:55.436Z,11832
2017-09-04T09:01:35.984Z,11968
2017-09-04T09:02:16.519Z,12128
2017-09-04T09:02:57.036Z,11648
2017-09-04T09:03:37.577Z,11708
2017-09-04T09:04:18.119Z,15416
2017-09-04T09:04:58.657Z,17664
2017-09-04T09:05:39.196Z,31968
2017-09-04T09:06:19.736Z,52384
2017-09-04T09:07:00.277Z,52448
2017-09-04T09:07:40.810Z,52064
2017-09-04T09:08:21.335Z,52544
2017-09-04T09:09:01.874Z,51744
2017-09-04T09:09:42.412Z,49760
2017-09-04T09:10:22.953Z,49440
2017-09-04T09:11:03.482Z,50912
2017-09-04T09:11:44.024Z,48352
2017-09-04T09:12:24.543Z,37600
2017-09-04T09:13:05.086Z,26560
2017-09-04T09:13:45.668Z,32512
2017-09-04T09:14:26.189Z,30048
2017-09-04T09:15:06.729Z,22976
2017-09-04T09:15:47.268Z,18720
2017-09-04T09:16:27.818Z,14860
2017-09-04T09:17:08.360Z,12028
2017-09-04T09:17:48.933Z,11176
2017-09-04T09:18:29.477Z,11080
2017-09-04T09:19:10.027Z,11268
2017-09-04T09:19:50.559Z,11532
2017-09-04T09:20:31.104Z,11084
2017-09-04T09:21:11.643Z,11180
2017-09-04T09:21:52.196Z,11036
2017-09-04T09:22:32.741Z,11428
2017-09-04T09:23:13.281Z,11616
2017-09-04T09:23:53.850Z,11836
2017-09-04T09:24:34.392Z,12428
2017-09-04T09:25:14.939Z,12528
2017-09-04T09:25:55.474Z,12800
2017-09-04T09:26:36.006Z,13084
2017-09-04T09:27:16.552Z,12400